Villard, MN (56385)

11:52 AM CDT on September 04, 2015 (GMT -0500)
Hoboken | | Change Station
CLOSE
Current Station
Personal Weather Station
Location: Sauk Centre, MN
Elevation: 1293 ft
Nearby Weather Stations

Elev 1293 ft 45.74 °N, 94.97 °W | Updated 12 minutes ago

Clear
Clear
83.8 °F
Feels Like 91 °F
N
0.0
Wind Variable Wind from WNW

Today
High -- | Low -- °F
--% Chance of Precip.
Yesterday
High -- | Low -- °F
Precip. -- in
6:45 AM 7:53 PM
Waning Gibbous, 58% visible
Pressure 29.89 in
Visibility 10.0 miles
Clouds Scattered Clouds 2000 ft
Heat Index 91 °F
Dew Point 74 °F
Humidity 72%
Rainfall 0.00 in
Snow Depth Not available.
UV 5 out of 12
Pollen 9.70 out of 12
Air Quality Not available.
Flu Activity Not available.
METAR KD39 041634Z AUTO 15009G14KT 10SM SCT020 27/22 A2989 RMK AO2 LTG DSNT SW AND W T02730221
Pressure 29.89 in
Visibility 10.0 miles
Clouds Scattered Clouds 2000 ft
Heat Index 91 °F
Dew Point 74 °F
Humidity 72%
Rainfall 0.00 in
Snow Depth Not available.
UV 5 out of 12
Pollen 9.70 out of 12
Air Quality Not available.
Flu Activity Not available.
METAR KD39 041634Z AUTO 15009G14KT 10SM SCT020 27/22 A2989 RMK AO2 LTG DSNT SW AND W T02730221

10-Day Weather Forecast

×

Almanac

Astronomy

Sep. 04, 2015 Rise Set
Actual Time
Civil Twilight
Nautical Twilight
Astronomical Twilight
Moon
Length of Visible Light
Length of Day
Tomorrow will be .
, % of the Moon is Illuminated

Today's Extremes

State Highs State Lows

Community

WunderPhotos

Upload Photos

1,852,226 photos uploaded!

WunderBlogs® & News

Nearby

Air Quality

  Air Quality AQ Index Pollutant
Not available.

Snow Depth

Station Depth Elevation

Earthquake Activity

City Distance Mag. Time & Date
Minimum magnitude displayed is 2.5.

Coastal Water Temperatures

Place Temperature

Stations

Nearby Weather Stations

Station Location Temp. Windchill Dew Point Humidity Wind Precip. Elev Updated Type